Time;durP1;ratioP1;P1;durP2;ratioP2;P2;SDS_P1;SDS_P2;PMS_P1;PMS_P2;Temp;Humidity;BMP_temperature;BMP_pressure;BME280_temperature;BME280_humidity;BME280_pressure;Samples;Min_cycle;Max_cycle;Signal;HPM_P1;HPM_P2
2022/05/21 00:00:47;;;;;;;4.53;3.47;;;;;;;;;;5029826;28;20198;-76
2022/05/21 00:03:14;;;;;;;4.73;3.40;;;;;;;;;;5027999;28;20203;-76
2022/05/21 00:05:40;;;;;;;3.47;3.00;;;;;;;;;;5022759;28;20187;-76
2022/05/21 00:08:10;;;;;;;4.57;3.27;;;;;;;;;;5031833;28;20198;-76
2022/05/21 00:10:37;;;;;;;4.97;3.30;;;;;;;;;;5021150;28;20559;-76
2022/05/21 00:13:03;;;;;;;3.80;3.50;;;;;;;;;;5030952;28;20206;-76
2022/05/21 00:15:32;;;;;;;3.37;3.07;;;;;;;;;;5031910;28;20553;-76
2022/05/21 00:17:58;;;;;;;5.90;3.33;;;;;;;;;;5030097;28;20190;-76
2022/05/21 00:23:30;;;;;;;3.90;3.50;;;;;;;;;;5029445;28;20190;-76
2022/05/21 00:25:59;;;;;;;4.50;3.10;;;;;;;;;;5031449;28;20183;-76
2022/05/21 00:28:25;;;;;;;3.40;3.10;;;;;;;;;;5032497;28;20206;-76
2022/05/21 00:30:51;;;;;;;3.50;3.20;;;;;;;;;;5020494;28;20227;-76
2022/05/21 00:33:18;;;;;;;3.00;2.70;;;;;;;;;;5030727;28;20601;-76
2022/05/21 00:35:44;;;;;;;3.33;2.83;;;;;;;;;;5027072;28;20182;-76
2022/05/21 00:38:10;;;;;;;3.27;2.97;;;;;;;;;;5025219;28;20213;-76
2022/05/21 00:40:37;;;;;;;3.17;2.80;;;;;;;;;;5025336;28;20183;-77
2022/05/21 00:43:04;;;;;;;2.67;2.40;;;;;;;;;;5025034;28;20185;-76
2022/05/21 00:45:31;;;;;;;3.70;2.60;;;;;;;;;;5031150;28;20194;-77
2022/05/21 00:47:57;;;;;;;3.10;2.80;;;;;;;;;;5027406;28;20667;-76
2022/05/21 00:50:26;;;;;;;3.93;2.40;;;;;;;;;;5027658;28;20183;-76
2022/05/21 00:52:53;;;;;;;3.63;2.33;;;;;;;;;;5027455;28;20202;-76
2022/05/21 00:55:29;;;;;;;2.73;2.43;;;;;;;;;;5028071;28;20559;-77
2022/05/21 01:00:43;;;;;;;3.97;2.30;;;;;;;;;;5019742;28;20195;-76
2022/05/21 01:03:09;;;;;;;2.87;2.10;;;;;;;;;;5025538;28;20232;-76
2022/05/21 01:05:37;;;;;;;2.07;1.83;;;;;;;;;;5025887;28;20199;-76
2022/05/21 01:08:04;;;;;;;2.10;1.90;;;;;;;;;;5030741;28;20215;-76
2022/05/21 01:10:33;;;;;;;2.20;1.87;;;;;;;;;;5029838;28;20183;-76
2022/05/21 01:13:01;;;;;;;2.13;1.90;;;;;;;;;;5032171;28;20222;-77
2022/05/21 01:15:29;;;;;;;2.23;1.90;;;;;;;;;;5025197;28;20203;-76
2022/05/21 01:17:56;;;;;;;2.50;2.27;;;;;;;;;;5016712;28;20183;-76
2022/05/21 01:20:38;;;;;;;2.37;2.07;;;;;;;;;;5024389;28;20323;-76
2022/05/21 01:23:05;;;;;;;2.83;2.17;;;;;;;;;;5026897;28;20276;-76
2022/05/21 01:25:34;;;;;;;2.70;2.13;;;;;;;;;;5036195;28;20174;-76
2022/05/21 01:28:01;;;;;;;3.87;2.60;;;;;;;;;;5040824;28;20183;-76
2022/05/21 01:30:34;;;;;;;4.97;2.40;;;;;;;;;;5029878;28;20188;-76
2022/05/21 01:33:03;;;;;;;3.07;2.50;;;;;;;;;;5030945;28;20198;-76
2022/05/21 01:35:30;;;;;;;4.63;2.70;;;;;;;;;;5034085;28;20183;-76
2022/05/21 01:37:57;;;;;;;3.50;2.40;;;;;;;;;;5036083;28;20205;-76
2022/05/21 01:40:23;;;;;;;2.83;2.43;;;;;;;;;;5040844;28;20273;-74
2022/05/21 01:45:35;;;;;;;2.67;2.47;;;;;;;;;;5037593;28;20190;-74
2022/05/21 01:48:05;;;;;;;2.60;2.40;;;;;;;;;;5027851;28;20182;-74
2022/05/21 01:50:32;;;;;;;2.73;2.50;;;;;;;;;;5028819;28;20233;-75
2022/05/21 01:52:58;;;;;;;2.63;2.43;;;;;;;;;;5030564;28;20215;-74
2022/05/21 01:55:24;;;;;;;2.47;2.27;;;;;;;;;;5029175;28;20587;-74
2022/05/21 01:57:51;;;;;;;3.20;2.50;;;;;;;;;;5030236;28;20187;-74
2022/05/21 02:00:17;;;;;;;3.93;2.20;;;;;;;;;;5030994;28;20178;-74
2022/05/21 02:02:43;;;;;;;3.40;2.43;;;;;;;;;;5029300;28;20282;-74
2022/05/21 02:05:10;;;;;;;2.60;2.40;;;;;;;;;;5027466;28;20621;-74
2022/05/21 02:07:36;;;;;;;2.73;2.33;;;;;;;;;;5031546;28;20182;-74
2022/05/21 02:10:03;;;;;;;2.63;2.37;;;;;;;;;;5030737;28;20210;-74
2022/05/21 02:12:29;;;;;;;3.13;2.57;;;;;;;;;;5027812;28;20291;-74
2022/05/21 02:14:56;;;;;;;3.40;2.80;;;;;;;;;;5031171;28;20198;-74
2022/05/21 02:17:23;;;;;;;3.03;2.53;;;;;;;;;;5024829;28;20207;-74
2022/05/21 02:19:51;;;;;;;3.27;2.97;;;;;;;;;;5023310;28;20828;-74
2022/05/21 02:22:17;;;;;;;3.63;2.80;;;;;;;;;;5026264;28;20191;-74
2022/05/21 02:24:44;;;;;;;2.80;2.50;;;;;;;;;;5037090;28;20244;-74
2022/05/21 02:27:14;;;;;;;2.83;2.60;;;;;;;;;;5037640;28;20239;-74
2022/05/21 02:29:41;;;;;;;2.93;2.63;;;;;;;;;;5029318;28;20427;-74
2022/05/21 02:32:07;;;;;;;2.93;2.60;;;;;;;;;;5030962;28;20206;-74
2022/05/21 02:34:34;;;;;;;3.40;2.70;;;;;;;;;;5027357;28;20187;-74
2022/05/21 02:39:45;;;;;;;3.20;2.90;;;;;;;;;;5021171;28;20198;-74
2022/05/21 02:44:57;;;;;;;3.00;2.70;;;;;;;;;;5025786;28;20186;-74
2022/05/21 02:47:25;;;;;;;4.17;3.10;;;;;;;;;;5025492;28;20194;-74
2022/05/21 02:49:51;;;;;;;6.17;3.40;;;;;;;;;;5028724;28;20210;-75
2022/05/21 02:52:17;;;;;;;3.50;3.20;;;;;;;;;;5030580;28;20300;-74
2022/05/21 02:54:43;;;;;;;3.23;2.93;;;;;;;;;;5029929;28;20190;-74
2022/05/21 02:57:10;;;;;;;3.27;2.97;;;;;;;;;;5029739;28;20194;-75
2022/05/21 02:59:37;;;;;;;3.10;2.80;;;;;;;;;;5020412;28;20210;-74
2022/05/21 03:02:03;;;;;;;2.97;2.60;;;;;;;;;;5022224;28;20206;-74
2022/05/21 03:04:30;;;;;;;3.47;2.90;;;;;;;;;;5029358;28;20197;-74
2022/05/21 03:06:59;;;;;;;3.43;3.07;;;;;;;;;;5025541;28;20187;-74
2022/05/21 03:12:30;;;;;;;5.27;3.20;;;;;;;;;;5035231;28;20210;-74
2022/05/21 03:14:56;;;;;;;4.17;3.10;;;;;;;;;;5041625;28;20185;-74
2022/05/21 03:17:28;;;;;;;4.53;3.93;;;;;;;;;;5012803;28;20547;-74
2022/05/21 03:19:54;;;;;;;5.40;3.50;;;;;;;;;;5022447;28;20225;-74
2022/05/21 03:22:21;;;;;;;4.17;3.80;;;;;;;;;;5029672;28;20819;-74
2022/05/21 03:24:47;;;;;;;3.90;3.60;;;;;;;;;;5029428;28;20182;-75
2022/05/21 03:27:13;;;;;;;4.13;3.33;;;;;;;;;;5029423;28;20550;-75
2022/05/21 03:29:39;;;;;;;3.60;3.30;;;;;;;;;;5029792;28;20209;-75
2022/05/21 03:32:07;;;;;;;4.93;3.60;;;;;;;;;;5030999;28;20209;-75
2022/05/21 03:34:34;;;;;;;4.17;3.43;;;;;;;;;;5016926;28;20313;-75
2022/05/21 03:37:00;;;;;;;3.73;3.43;;;;;;;;;;5029408;28;20690;-75
2022/05/21 03:39:28;;;;;;;5.07;3.87;;;;;;;;;;5029817;28;20201;-75
2022/05/21 03:42:12;;;;;;;3.60;3.30;;;;;;;;;;5030801;28;20182;-75
2022/05/21 03:44:39;;;;;;;4.07;3.67;;;;;;;;;;5027713;28;20771;-75
2022/05/21 03:47:05;;;;;;;3.53;3.23;;;;;;;;;;5030597;28;20545;-75
2022/05/21 03:49:31;;;;;;;3.70;3.33;;;;;;;;;;5029659;28;20204;-75
2022/05/21 03:51:57;;;;;;;3.90;3.60;;;;;;;;;;5031078;28;20245;-76
2022/05/21 03:54:23;;;;;;;3.70;3.40;;;;;;;;;;5025661;28;20277;-75
2022/05/21 03:56:50;;;;;;;3.67;3.37;;;;;;;;;;5029930;28;20171;-75
2022/05/21 03:59:16;;;;;;;3.53;3.23;;;;;;;;;;5025516;28;20240;-75
2022/05/21 04:01:42;;;;;;;3.40;3.10;;;;;;;;;;5030241;28;20268;-75
2022/05/21 04:04:08;;;;;;;5.17;3.30;;;;;;;;;;5019902;28;20618;-75
2022/05/21 04:06:34;;;;;;;3.50;3.20;;;;;;;;;;5026124;28;20265;-75
2022/05/21 04:09:00;;;;;;;3.80;3.50;;;;;;;;;;5019568;28;20215;-75
2022/05/21 04:11:27;;;;;;;3.67;3.17;;;;;;;;;;5021718;28;20180;-75
2022/05/21 04:13:53;;;;;;;3.97;3.53;;;;;;;;;;5021266;28;20260;-75
2022/05/21 04:16:19;;;;;;;4.07;3.70;;;;;;;;;;5026047;28;20181;-75
2022/05/21 04:18:45;;;;;;;4.17;3.77;;;;;;;;;;5022612;28;20190;-75
2022/05/21 04:21:12;;;;;;;4.87;3.50;;;;;;;;;;5019449;28;20182;-75
2022/05/21 04:23:38;;;;;;;4.50;3.67;;;;;;;;;;5027293;28;20253;-75
2022/05/21 04:26:04;;;;;;;3.80;3.40;;;;;;;;;;5030465;28;20183;-75
2022/05/21 04:28:30;;;;;;;4.00;3.60;;;;;;;;;;5023982;28;20207;-75
2022/05/21 04:30:56;;;;;;;3.50;3.20;;;;;;;;;;5026417;28;20182;-75
2022/05/21 04:33:23;;;;;;;3.40;3.10;;;;;;;;;;5026086;28;20226;-75
2022/05/21 04:38:34;;;;;;;3.53;3.20;;;;;;;;;;5028957;28;20835;-74
2022/05/21 04:41:00;;;;;;;4.33;3.23;;;;;;;;;;5029295;28;20225;-75
2022/05/21 04:43:29;;;;;;;3.80;3.40;;;;;;;;;;5032357;28;20671;-79
2022/05/21 04:45:58;;;;;;;3.60;3.30;;;;;;;;;;5034488;28;20187;-74
2022/05/21 04:48:24;;;;;;;5.60;3.20;;;;;;;;;;5032876;28;20217;-73
2022/05/21 04:50:50;;;;;;;3.53;3.23;;;;;;;;;;5025058;28;20229;-73
2022/05/21 04:53:16;;;;;;;2.97;2.77;;;;;;;;;;5022500;28;20301;-73
2022/05/21 04:55:42;;;;;;;3.70;3.07;;;;;;;;;;5028417;28;20232;-74
2022/05/21 04:58:09;;;;;;;3.50;3.10;;;;;;;;;;5025851;28;20681;-74
2022/05/21 05:00:35;;;;;;;5.43;3.00;;;;;;;;;;5026353;28;20701;-77
2022/05/21 05:03:01;;;;;;;4.87;2.80;;;;;;;;;;5031558;28;20194;-75
2022/05/21 05:05:27;;;;;;;2.87;2.67;;;;;;;;;;5028155;28;20212;-75
2022/05/21 05:07:53;;;;;;;3.00;2.70;;;;;;;;;;5021765;28;20191;-75
2022/05/21 05:10:20;;;;;;;4.30;3.43;;;;;;;;;;5031112;28;20676;-75
2022/05/21 05:12:46;;;;;;;3.77;3.10;;;;;;;;;;5030492;28;20706;-75
2022/05/21 05:15:12;;;;;;;3.43;3.13;;;;;;;;;;5023199;28;20198;-75
2022/05/21 05:17:39;;;;;;;3.20;2.90;;;;;;;;;;5030923;28;20179;-76
2022/05/21 05:20:05;;;;;;;5.30;2.80;;;;;;;;;;5018353;28;20206;-75
2022/05/21 05:22:31;;;;;;;2.70;2.50;;;;;;;;;;5032486;28;20217;-75
2022/05/21 05:24:58;;;;;;;3.20;2.40;;;;;;;;;;5026659;28;20174;-75
2022/05/21 05:27:24;;;;;;;3.40;2.40;;;;;;;;;;5027622;28;20206;-74
2022/05/21 05:29:50;;;;;;;3.17;2.60;;;;;;;;;;5021510;28;20207;-75
2022/05/21 05:32:17;;;;;;;2.60;2.40;;;;;;;;;;5029782;28;20203;-75
2022/05/21 05:34:43;;;;;;;3.43;2.20;;;;;;;;;;5025538;28;20183;-75
2022/05/21 05:37:10;;;;;;;4.17;2.37;;;;;;;;;;5021431;28;20195;-75
2022/05/21 05:39:36;;;;;;;2.40;2.20;;;;;;;;;;5026063;28;20233;-75
2022/05/21 05:42:04;;;;;;;3.43;2.17;;;;;;;;;;5023581;28;20273;-75
2022/05/21 05:44:31;;;;;;;3.50;2.00;;;;;;;;;;5028209;28;20204;-75
2022/05/21 05:46:58;;;;;;;3.40;2.30;;;;;;;;;;5026427;28;20202;-75
2022/05/21 05:49:24;;;;;;;3.10;2.03;;;;;;;;;;5030879;28;20217;-75
2022/05/21 05:51:56;;;;;;;2.20;2.00;;;;;;;;;;5030783;28;20262;-75
2022/05/21 05:54:22;;;;;;;2.40;1.80;;;;;;;;;;5026106;28;20182;-74
2022/05/21 05:56:48;;;;;;;2.50;1.43;;;;;;;;;;5022501;28;20194;-75
2022/05/21 06:04:44;;;;;;;2.63;1.73;;;;;;;;;;5028525;28;20233;-75
2022/05/21 06:07:25;;;;;;;2.07;1.50;;;;;;;;;;5029500;28;20186;-75
2022/05/21 06:09:51;;;;;;;2.47;1.70;;;;;;;;;;5026129;28;20228;-75
2022/05/21 06:12:18;;;;;;;3.00;1.50;;;;;;;;;;5023581;28;20740;-75
2022/05/21 06:14:45;;;;;;;4.17;1.43;;;;;;;;;;5022282;28;20688;-75
2022/05/21 06:17:12;;;;;;;5.23;1.60;;;;;;;;;;5028334;28;20186;-75
2022/05/21 06:19:38;;;;;;;6.47;1.80;;;;;;;;;;5027549;28;20195;-75
2022/05/21 06:22:04;;;;;;;2.63;1.30;;;;;;;;;;5025194;28;20171;-76
2022/05/21 06:24:36;;;;;;;2.10;1.30;;;;;;;;;;5028910;28;20229;-73
2022/05/21 06:27:02;;;;;;;1.93;1.17;;;;;;;;;;5021465;28;20179;-74
2022/05/21 06:29:28;;;;;;;2.03;1.23;;;;;;;;;;5028514;28;20280;-74
2022/05/21 06:31:55;;;;;;;4.60;1.50;;;;;;;;;;5030947;28;20193;-80
2022/05/21 06:34:21;;;;;;;3.43;1.43;;;;;;;;;;5030637;28;20174;-75
2022/05/21 06:36:47;;;;;;;5.23;1.60;;;;;;;;;;5028170;28;20685;-79
2022/05/21 06:39:13;;;;;;;3.13;1.20;;;;;;;;;;5031082;28;20202;-79
2022/05/21 06:41:39;;;;;;;3.53;1.40;;;;;;;;;;5013442;28;20181;-79
2022/05/21 06:44:05;;;;;;;2.70;1.50;;;;;;;;;;5031279;28;20209;-79
2022/05/21 06:46:32;;;;;;;2.60;1.40;;;;;;;;;;5031592;28;20727;-79
2022/05/21 06:48:58;;;;;;;5.03;1.70;;;;;;;;;;5030919;28;20234;-79
2022/05/21 06:51:24;;;;;;;4.33;1.30;;;;;;;;;;5030304;28;20188;-79
2022/05/21 06:53:50;;;;;;;2.97;1.57;;;;;;;;;;5030910;28;20241;-79
2022/05/21 06:56:17;;;;;;;3.37;1.60;;;;;;;;;;5031638;28;20184;-79
2022/05/21 06:58:44;;;;;;;3.83;1.23;;;;;;;;;;5030763;28;20230;-79
2022/05/21 07:01:10;;;;;;;2.70;1.40;;;;;;;;;;5031401;28;20661;-79
2022/05/21 07:03:37;;;;;;;3.50;1.50;;;;;;;;;;5029847;28;20274;-79
2022/05/21 07:08:51;;;;;;;2.77;1.43;;;;;;;;;;5030800;28;20206;-79
2022/05/21 07:11:17;;;;;;;3.43;1.30;;;;;;;;;;5031137;28;20224;-79
2022/05/21 07:13:44;;;;;;;2.87;1.43;;;;;;;;;;5030792;28;20220;-79
2022/05/21 07:16:10;;;;;;;3.23;1.40;;;;;;;;;;5030254;28;20174;-79
2022/05/21 07:18:36;;;;;;;4.90;1.27;;;;;;;;;;5030449;28;20244;-79
2022/05/21 07:21:03;;;;;;;3.93;1.60;;;;;;;;;;5031120;28;20186;-79
2022/05/21 07:23:30;;;;;;;4.13;1.40;;;;;;;;;;5018465;28;20238;-79
2022/05/21 07:25:56;;;;;;;3.90;1.40;;;;;;;;;;5029335;28;20720;-79
2022/05/21 07:28:22;;;;;;;4.80;1.57;;;;;;;;;;5030838;28;20202;-79
2022/05/21 07:30:49;;;;;;;2.83;1.40;;;;;;;;;;5030151;28;20190;-79
2022/05/21 07:33:16;;;;;;;3.77;1.60;;;;;;;;;;5010164;28;20285;-79
2022/05/21 07:35:43;;;;;;;2.27;1.23;;;;;;;;;;5025592;28;20264;-78
2022/05/21 07:38:11;;;;;;;2.80;1.47;;;;;;;;;;5029920;28;20202;-78
2022/05/21 07:40:38;;;;;;;3.30;1.30;;;;;;;;;;5031021;28;20181;-80
2022/05/21 07:43:11;;;;;;;3.50;1.60;;;;;;;;;;5030445;28;20422;-79
2022/05/21 07:45:39;;;;;;;2.87;1.33;;;;;;;;;;5040570;28;20186;-80
2022/05/21 07:48:10;;;;;;;4.53;1.70;;;;;;;;;;5028874;28;20607;-81
2022/05/21 07:50:40;;;;;;;4.30;1.70;;;;;;;;;;5027138;28;20198;-74
2022/05/21 07:53:17;;;;;;;4.30;1.60;;;;;;;;;;5020007;28;20217;-74
2022/05/21 07:55:44;;;;;;;6.03;1.60;;;;;;;;;;5024138;28;20187;-75
2022/05/21 07:58:11;;;;;;;3.83;1.40;;;;;;;;;;5029234;28;20224;-74
2022/05/21 08:00:38;;;;;;;8.10;1.90;;;;;;;;;;5027840;28;20741;-74
2022/05/21 08:03:04;;;;;;;8.43;2.20;;;;;;;;;;5026766;28;20610;-74
2022/05/21 08:05:31;;;;;;;4.97;1.73;;;;;;;;;;5023499;28;20179;-73
2022/05/21 08:07:57;;;;;;;5.03;1.40;;;;;;;;;;5030271;28;20186;-75
2022/05/21 08:10:23;;;;;;;3.33;1.70;;;;;;;;;;5023296;28;20253;-74
2022/05/21 08:12:51;;;;;;;2.67;1.40;;;;;;;;;;5026222;28;20962;-74
2022/05/21 08:15:17;;;;;;;2.83;1.50;;;;;;;;;;5024319;28;20171;-74
2022/05/21 08:17:43;;;;;;;2.83;1.40;;;;;;;;;;5033451;28;20164;-74
2022/05/21 08:20:11;;;;;;;2.37;1.20;;;;;;;;;;5020864;28;20569;-74
2022/05/21 08:28:36;;;;;;;4.30;1.40;;;;;;;;;;5027501;28;20284;-74
2022/05/21 08:31:03;;;;;;;3.83;1.60;;;;;;;;;;5029816;28;20186;-79
2022/05/21 08:33:29;;;;;;;3.33;1.60;;;;;;;;;;5032192;28;20720;-74
2022/05/21 08:35:56;;;;;;;3.50;1.47;;;;;;;;;;5031655;28;20263;-74
2022/05/21 08:38:22;;;;;;;2.93;1.57;;;;;;;;;;5027407;28;20294;-74
2022/05/21 08:40:51;;;;;;;4.03;1.70;;;;;;;;;;5026934;28;20228;-74
2022/05/21 08:43:21;;;;;;;3.27;1.70;;;;;;;;;;5027451;28;20197;-75
2022/05/21 08:46:07;;;;;;;3.27;1.60;;;;;;;;;;5026579;28;20190;-74
2022/05/21 08:48:33;;;;;;;2.57;1.40;;;;;;;;;;5026824;28;20301;-75
2022/05/21 08:51:01;;;;;;;3.23;1.60;;;;;;;;;;5027840;28;20182;-75
2022/05/21 08:53:29;;;;;;;4.07;1.57;;;;;;;;;;5009778;28;20568;-74
2022/05/21 08:55:57;;;;;;;2.80;1.53;;;;;;;;;;5026803;28;20554;-75
2022/05/21 08:58:32;;;;;;;3.77;1.50;;;;;;;;;;5026010;28;20206;-75
2022/05/21 09:00:58;;;;;;;3.90;1.40;;;;;;;;;;5023834;28;20190;-75
2022/05/21 09:03:25;;;;;;;3.03;1.50;;;;;;;;;;5027454;28;20183;-75
2022/05/21 09:06:11;;;;;;;3.47;1.40;;;;;;;;;;5025314;28;20194;-75
2022/05/21 09:08:37;;;;;;;2.57;1.57;;;;;;;;;;5025770;28;20266;-74
2022/05/21 09:11:11;;;;;;;4.83;1.47;;;;;;;;;;5027133;28;20194;-74
2022/05/21 09:13:41;;;;;;;4.90;1.57;;;;;;;;;;5026334;28;20210;-75
2022/05/21 09:18:55;;;;;;;4.10;1.50;;;;;;;;;;5027707;28;20198;-74
2022/05/21 09:21:22;;;;;;;3.17;1.70;;;;;;;;;;5028832;28;20210;-74
2022/05/21 09:23:54;;;;;;;3.53;1.50;;;;;;;;;;5032854;28;20198;-74
2022/05/21 09:26:22;;;;;;;2.50;1.60;;;;;;;;;;5024582;28;20241;-74
2022/05/21 09:28:49;;;;;;;3.83;1.53;;;;;;;;;;5029359;28;20248;-74
2022/05/21 09:31:23;;;;;;;5.07;1.80;;;;;;;;;;5019876;28;20190;-74
2022/05/21 09:33:49;;;;;;;2.07;1.40;;;;;;;;;;5028779;28;20288;-74
2022/05/21 09:36:21;;;;;;;2.70;1.73;;;;;;;;;;5033144;28;20618;-74
2022/05/21 09:38:54;;;;;;;4.10;1.83;;;;;;;;;;5038019;28;20206;-75
2022/05/21 09:41:20;;;;;;;4.23;1.60;;;;;;;;;;5029143;28;20891;-74
2022/05/21 09:47:12;;;;;;;3.30;1.70;;;;;;;;;;5036244;28;20178;-74
2022/05/21 09:49:39;;;;;;;3.70;1.70;;;;;;;;;;5014644;28;20959;-75
2022/05/21 09:52:09;;;;;;;6.33;2.00;;;;;;;;;;5037108;28;20222;-75
2022/05/21 09:54:35;;;;;;;3.27;1.80;;;;;;;;;;5030324;28;20212;-75
2022/05/21 09:57:02;;;;;;;3.27;1.57;;;;;;;;;;5028357;28;20186;-75
2022/05/21 09:59:30;;;;;;;5.00;1.70;;;;;;;;;;5026569;28;20213;-75
2022/05/21 10:01:59;;;;;;;6.30;1.67;;;;;;;;;;5027990;28;20191;-76
2022/05/21 10:04:27;;;;;;;2.93;1.30;;;;;;;;;;5030502;28;20179;-75
2022/05/21 10:06:56;;;;;;;4.73;1.47;;;;;;;;;;5027718;28;20190;-75
2022/05/21 10:12:28;;;;;;;4.00;1.40;;;;;;;;;;5030693;28;20206;-75
2022/05/21 10:15:14;;;;;;;2.50;1.33;;;;;;;;;;5031651;28;20179;-75
2022/05/21 10:17:42;;;;;;;4.87;1.83;;;;;;;;;;5023199;28;20241;-75
2022/05/21 10:20:12;;;;;;;2.60;1.60;;;;;;;;;;5016485;28;20333;-75
2022/05/21 10:22:54;;;;;;;4.13;1.90;;;;;;;;;;5030699;28;20559;-75
2022/05/21 10:25:22;;;;;;;3.83;1.37;;;;;;;;;;5022696;28;20185;-75
2022/05/21 10:28:08;;;;;;;2.40;1.50;;;;;;;;;;5029775;28;20194;-75
2022/05/21 10:30:40;;;;;;;6.87;1.80;;;;;;;;;;5026899;28;20204;-75
2022/05/21 10:33:13;;;;;;;4.50;1.80;;;;;;;;;;5034706;28;20365;-75
2022/05/21 10:35:47;;;;;;;3.40;1.57;;;;;;;;;;5033682;28;20182;-75
2022/05/21 10:38:21;;;;;;;2.80;1.50;;;;;;;;;;5031247;28;20203;-75
2022/05/21 10:41:00;;;;;;;4.03;1.60;;;;;;;;;;5029252;28;20182;-75
2022/05/21 10:43:42;;;;;;;2.57;1.50;;;;;;;;;;5023391;28;20197;-75
2022/05/21 10:46:15;;;;;;;2.83;1.50;;;;;;;;;;5030426;28;20180;-75
2022/05/21 10:48:51;;;;;;;2.60;1.40;;;;;;;;;;5030086;28;20207;-75
2022/05/21 10:51:21;;;;;;;3.43;1.20;;;;;;;;;;5027865;28;20658;-75
2022/05/21 10:53:55;;;;;;;3.03;1.67;;;;;;;;;;5028528;28;20206;-75
2022/05/21 10:56:34;;;;;;;2.47;1.40;;;;;;;;;;5026286;28;20524;-76
2022/05/21 10:59:10;;;;;;;2.43;1.30;;;;;;;;;;5035747;28;20198;-76
2022/05/21 11:01:55;;;;;;;2.40;1.30;;;;;;;;;;5036465;28;20617;-77
2022/05/21 11:04:30;;;;;;;4.07;1.40;;;;;;;;;;5026373;28;20174;-76
2022/05/21 11:07:06;;;;;;;5.07;1.40;;;;;;;;;;5028783;28;20649;-78
2022/05/21 11:09:45;;;;;;;3.57;1.40;;;;;;;;;;5030698;28;20339;-79
2022/05/21 11:12:15;;;;;;;3.83;1.40;;;;;;;;;;5027081;28;20277;-80
2022/05/21 11:14:44;;;;;;;2.77;1.50;;;;;;;;;;5028013;28;20182;-81
2022/05/21 11:17:11;;;;;;;2.60;1.30;;;;;;;;;;5014390;28;20214;-80
2022/05/21 11:19:46;;;;;;;3.80;1.37;;;;;;;;;;5033174;28;20202;-80
2022/05/21 11:22:17;;;;;;;3.10;1.30;;;;;;;;;;5034597;28;20173;-79
2022/05/21 11:25:02;;;;;;;3.37;1.40;;;;;;;;;;5031942;28;20677;-79
2022/05/21 11:27:36;;;;;;;3.13;1.33;;;;;;;;;;5030206;28;20167;-80
2022/05/21 11:30:08;;;;;;;1.90;1.17;;;;;;;;;;5032934;28;20197;-79
2022/05/21 11:38:27;;;;;;;4.00;1.40;;;;;;;;;;5025326;28;20693;-81
2022/05/21 11:43:53;;;;;;;3.17;1.30;;;;;;;;;;5029255;28;20270;-82
2022/05/21 11:46:20;;;;;;;3.33;1.27;;;;;;;;;;5030538;28;20194;-81
2022/05/21 11:48:47;;;;;;;2.47;1.43;;;;;;;;;;5034061;28;20206;-83
2022/05/21 11:51:20;;;;;;;2.70;1.30;;;;;;;;;;5016285;28;20189;-82
2022/05/21 11:53:46;;;;;;;2.73;1.50;;;;;;;;;;5030428;28;20285;-82
2022/05/21 11:56:13;;;;;;;2.60;1.50;;;;;;;;;;5019110;28;20642;-82
2022/05/21 11:58:58;;;;;;;2.27;1.30;;;;;;;;;;5043664;28;20202;-81
2022/05/21 12:01:47;;;;;;;2.20;1.20;;;;;;;;;;5032153;28;20214;-78
2022/05/21 12:04:24;;;;;;;5.43;1.57;;;;;;;;;;5031860;28;20190;-76
2022/05/21 12:06:50;;;;;;;2.47;1.50;;;;;;;;;;5027608;28;20188;-80
2022/05/21 12:09:27;;;;;;;6.03;1.57;;;;;;;;;;5027151;28;20678;-80
2022/05/21 12:12:13;;;;;;;2.67;1.30;;;;;;;;;;5029032;28;20199;-75
2022/05/21 12:15:11;;;;;;;1.77;1.40;;;;;;;;;;5033573;28;20174;-75
2022/05/21 12:17:43;;;;;;;2.50;1.30;;;;;;;;;;5030545;28;20215;-75
2022/05/21 12:20:56;;;;;;;4.00;1.40;;;;;;;;;;5007238;28;20196;-76
2022/05/21 12:23:32;;;;;;;3.90;1.60;;;;;;;;;;5024699;28;20198;-77
2022/05/21 12:26:02;;;;;;;4.50;1.40;;;;;;;;;;5025638;28;20236;-76
2022/05/21 12:28:37;;;;;;;3.97;1.40;;;;;;;;;;5026430;28;20202;-77
2022/05/21 12:31:08;;;;;;;3.23;1.23;;;;;;;;;;5029253;28;20194;-77
2022/05/21 12:33:45;;;;;;;3.57;1.30;;;;;;;;;;5028939;28;20213;-77
2022/05/21 12:36:24;;;;;;;3.10;1.20;;;;;;;;;;5027808;28;20170;-76
2022/05/21 12:38:52;;;;;;;2.53;1.10;;;;;;;;;;5028258;28;20230;-77
2022/05/21 12:41:18;;;;;;;2.03;1.30;;;;;;;;;;5028069;28;20184;-77
2022/05/21 12:43:48;;;;;;;1.97;1.30;;;;;;;;;;5027955;28;20224;-76
2022/05/21 12:46:22;;;;;;;3.90;1.10;;;;;;;;;;5024190;28;20191;-76
2022/05/21 12:48:49;;;;;;;1.87;1.20;;;;;;;;;;5030673;28;20214;-76
2022/05/21 12:51:28;;;;;;;3.17;1.30;;;;;;;;;;5027808;28;20189;-75
2022/05/21 12:53:55;;;;;;;2.37;1.33;;;;;;;;;;5030863;28;20208;-77
2022/05/21 12:56:27;;;;;;;3.60;1.23;;;;;;;;;;5031279;28;20179;-76
2022/05/21 12:59:08;;;;;;;2.43;1.30;;;;;;;;;;5024106;28;20203;-77
2022/05/21 13:01:37;;;;;;;1.83;1.27;;;;;;;;;;5028806;28;20260;-77
2022/05/21 13:04:21;;;;;;;2.47;1.20;;;;;;;;;;5024782;28;20190;-76
2022/05/21 13:06:50;;;;;;;1.53;1.20;;;;;;;;;;5022694;28;20186;-77
2022/05/21 13:09:17;;;;;;;1.97;1.33;;;;;;;;;;5031515;28;20947;-77
2022/05/21 13:11:44;;;;;;;2.57;1.20;;;;;;;;;;5036382;28;20203;-76
2022/05/21 13:14:19;;;;;;;3.70;1.20;;;;;;;;;;5030395;28;20204;-77
2022/05/21 13:16:48;;;;;;;4.27;1.47;;;;;;;;;;5026992;28;20189;-77
2022/05/21 13:19:21;;;;;;;2.90;1.40;;;;;;;;;;5028146;28;20233;-77
2022/05/21 13:21:53;;;;;;;2.40;1.37;;;;;;;;;;5031786;28;20174;-77
2022/05/21 13:24:38;;;;;;;3.27;1.07;;;;;;;;;;5026971;28;20191;-77
2022/05/21 13:27:16;;;;;;;4.23;1.33;;;;;;;;;;5029179;28;20257;-78
2022/05/21 13:29:42;;;;;;;3.80;1.37;;;;;;;;;;5029580;28;20205;-79
2022/05/21 13:32:24;;;;;;;2.27;1.40;;;;;;;;;;5026466;28;20220;-81
2022/05/21 13:34:51;;;;;;;2.27;1.10;;;;;;;;;;5024643;28;20173;-80
2022/05/21 13:37:18;;;;;;;2.70;1.40;;;;;;;;;;5025480;28;20266;-79
2022/05/21 13:39:57;;;;;;;2.90;1.20;;;;;;;;;;5033337;28;20722;-79
2022/05/21 13:42:24;;;;;;;2.07;1.10;;;;;;;;;;5027305;28;20184;-78
2022/05/21 13:44:50;;;;;;;3.73;1.50;;;;;;;;;;5023305;28;20184;-80
2022/05/21 13:47:19;;;;;;;2.67;1.30;;;;;;;;;;5033655;28;20274;-79
2022/05/21 13:49:49;;;;;;;2.60;1.50;;;;;;;;;;5025574;28;20349;-79
2022/05/21 13:52:16;;;;;;;2.37;1.30;;;;;;;;;;5029065;28;20201;-80
2022/05/21 13:54:43;;;;;;;4.57;1.50;;;;;;;;;;5030972;28;20182;-80
2022/05/21 13:57:21;;;;;;;3.07;1.20;;;;;;;;;;5034285;28;20669;-80
2022/05/21 13:59:49;;;;;;;3.70;1.20;;;;;;;;;;5032426;28;20208;-80
2022/05/21 14:02:30;;;;;;;3.57;1.33;;;;;;;;;;5032999;28;20669;-79
2022/05/21 14:04:57;;;;;;;2.77;1.27;;;;;;;;;;5009111;28;20221;-81
2022/05/21 14:07:31;;;;;;;2.30;1.30;;;;;;;;;;5015873;28;20194;-81
2022/05/21 14:09:59;;;;;;;2.80;1.10;;;;;;;;;;5025646;28;20241;-80
2022/05/21 14:12:35;;;;;;;1.60;1.20;;;;;;;;;;5028013;28;20179;-80
2022/05/21 14:15:06;;;;;;;2.17;1.07;;;;;;;;;;5029899;28;20178;-80
2022/05/21 14:17:35;;;;;;;2.20;1.30;;;;;;;;;;5028735;28;20597;-79
2022/05/21 14:20:01;;;;;;;1.70;1.00;;;;;;;;;;5025521;28;20192;-80
2022/05/21 14:22:28;;;;;;;2.60;1.20;;;;;;;;;;5026066;28;20265;-80
2022/05/21 14:24:54;;;;;;;2.93;1.37;;;;;;;;;;5029967;28;20194;-80
2022/05/21 14:27:27;;;;;;;3.33;1.10;;;;;;;;;;5029933;28;20259;-80
2022/05/21 14:29:54;;;;;;;2.10;1.20;;;;;;;;;;5030908;28;20522;-80
2022/05/21 14:32:31;;;;;;;1.93;1.03;;;;;;;;;;5030991;28;20188;-79
2022/05/21 14:35:16;;;;;;;3.07;1.37;;;;;;;;;;5023928;28;20179;-79
2022/05/21 14:37:43;;;;;;;2.37;1.23;;;;;;;;;;5029934;28;20197;-78
2022/05/21 14:40:10;;;;;;;3.60;1.30;;;;;;;;;;5024172;28;20206;-79
2022/05/21 14:42:36;;;;;;;3.73;1.40;;;;;;;;;;5022290;28;20261;-78
2022/05/21 14:45:10;;;;;;;5.03;1.37;;;;;;;;;;5026436;28;20605;-79
2022/05/21 14:47:52;;;;;;;2.20;1.17;;;;;;;;;;5024562;28;20841;-79
2022/05/21 14:53:06;;;;;;;1.93;1.10;;;;;;;;;;5029296;28;20215;-78
2022/05/21 14:55:32;;;;;;;2.27;1.03;;;;;;;;;;5027957;28;20179;-79
2022/05/21 14:58:00;;;;;;;1.47;1.00;;;;;;;;;;5022545;28;20274;-79
2022/05/21 15:00:26;;;;;;;1.67;1.20;;;;;;;;;;5028105;28;20181;-79
2022/05/21 15:02:52;;;;;;;2.70;1.27;;;;;;;;;;5028731;28;20194;-78
2022/05/21 15:05:19;;;;;;;3.50;1.40;;;;;;;;;;5035418;28;20181;-78
2022/05/21 15:07:47;;;;;;;1.77;0.90;;;;;;;;;;5035873;28;20191;-79
2022/05/21 15:10:15;;;;;;;1.30;1.20;;;;;;;;;;5032595;28;20285;-78
2022/05/21 15:12:41;;;;;;;2.27;1.20;;;;;;;;;;5031086;28;20733;-79
2022/05/21 15:15:09;;;;;;;3.23;1.10;;;;;;;;;;5028499;28;20179;-78
2022/05/21 15:17:35;;;;;;;3.17;1.30;;;;;;;;;;5029208;28;20182;-78
2022/05/21 15:20:01;;;;;;;1.87;1.27;;;;;;;;;;5030142;28;20198;-78
2022/05/21 15:22:28;;;;;;;2.37;1.30;;;;;;;;;;5030967;28;20179;-78
2022/05/21 15:24:54;;;;;;;6.73;3.43;;;;;;;;;;5026781;28;20261;-78
2022/05/21 15:27:22;;;;;;;5.03;2.27;;;;;;;;;;5031806;28;20270;-78
2022/05/21 15:29:49;;;;;;;3.03;2.27;;;;;;;;;;5027439;28;20215;-78
2022/05/21 15:32:15;;;;;;;2.57;1.57;;;;;;;;;;5024868;28;20186;-79
2022/05/21 15:34:41;;;;;;;2.30;1.60;;;;;;;;;;5027898;28;20670;-78
2022/05/21 15:37:09;;;;;;;3.03;1.20;;;;;;;;;;5028556;28;20195;-79
2022/05/21 15:39:35;;;;;;;2.37;1.20;;;;;;;;;;5024194;28;20276;-78
2022/05/21 15:42:03;;;;;;;3.27;1.63;;;;;;;;;;5024802;28;20186;-78
2022/05/21 15:44:29;;;;;;;1.70;1.27;;;;;;;;;;5025215;28;20186;-78
2022/05/21 15:46:55;;;;;;;1.90;1.30;;;;;;;;;;5025759;28;20178;-78
2022/05/21 15:49:22;;;;;;;3.23;1.43;;;;;;;;;;5025858;28;20214;-78